createdAt,value
2018-03-25T00:00:18.171Z,85.11
2018-03-25T00:01:18.190Z,84.74
2018-03-25T00:02:18.218Z,85.21
2018-03-25T00:03:18.227Z,84.64
2018-03-25T00:04:18.248Z,84.64
2018-03-25T00:05:18.273Z,84.83
2018-03-25T00:06:18.285Z,85.21
2018-03-25T00:07:18.306Z,84.83
2018-03-25T00:08:18.326Z,84.36
2018-03-25T00:09:18.342Z,84.55
2018-03-25T00:10:18.364Z,84.45
2018-03-25T00:11:18.381Z,84.45
2018-03-25T00:12:18.402Z,84.55
2018-03-25T00:13:18.458Z,84.64
2018-03-25T00:14:18.436Z,84.74
2018-03-25T00:15:18.458Z,85.02
2018-03-25T00:16:18.473Z,84.83
2018-03-25T00:17:18.497Z,84.74
2018-03-25T00:18:18.509Z,84.55
2018-03-25T00:19:18.531Z,84.83
2018-03-25T00:20:18.552Z,84.26
2018-03-25T00:21:18.564Z,84.55
2018-03-25T00:22:18.610Z,84.36
2018-03-25T00:23:18.609Z,84.07
2018-03-25T00:24:18.632Z,83.78
2018-03-25T00:25:18.646Z,83.97
2018-03-25T00:26:18.663Z,83.69
2018-03-25T00:27:18.679Z,83.69
2018-03-25T00:28:18.704Z,83.88
2018-03-25T00:29:18.717Z,83.97
2018-03-25T00:30:18.743Z,84.17
2018-03-25T00:31:18.763Z,84.26
2018-03-25T00:32:18.771Z,84.45
2018-03-25T00:33:18.814Z,84.36
2018-03-25T00:34:18.812Z,84.17
2018-03-25T00:35:18.828Z,84.17
2018-03-25T00:36:18.855Z,84.17
2018-03-25T00:37:18.868Z,84.07
2018-03-25T00:38:18.889Z,84.17
2018-03-25T00:39:18.913Z,84.17
2018-03-25T00:40:18.920Z,84.36
2018-03-25T00:41:18.948Z,84.45
2018-03-25T00:42:18.998Z,84.74
2018-03-25T00:43:18.981Z,85.21
2018-03-25T00:44:19.002Z,84.83
2018-03-25T00:45:19.024Z,85.02
2018-03-25T00:46:19.042Z,85.11
2018-03-25T00:47:19.060Z,84.55
2018-03-25T00:48:19.077Z,84.45
2018-03-25T00:49:19.092Z,84.92
2018-03-25T00:50:19.117Z,84.55
2018-03-25T00:51:19.131Z,84.36
2018-03-25T00:52:19.153Z,84.55
2018-03-25T00:53:19.172Z,84.45
2018-03-25T00:54:19.184Z,84.45
2018-03-25T00:55:19.208Z,85.21
2018-03-25T00:56:19.220Z,85.02
2018-03-25T00:57:19.248Z,84.55
2018-03-25T00:58:19.261Z,84.92
2018-03-25T00:59:19.280Z,85.11
2018-03-25T01:00:19.300Z,84.45
2018-03-25T01:01:19.315Z,84.83
2018-03-25T01:02:19.336Z,84.83
2018-03-25T01:03:19.352Z,84.83
2018-03-25T01:04:19.372Z,84.74
2018-03-25T01:05:19.392Z,84.55
2018-03-25T01:06:19.412Z,84.55
2018-03-25T01:07:19.428Z,84.74
2018-03-25T01:08:19.451Z,84.55
2018-03-25T01:09:19.468Z,84.83
2018-03-25T01:10:19.485Z,84.64
2018-03-25T01:11:19.506Z,84.26
2018-03-25T01:12:19.522Z,84.74
2018-03-25T01:13:19.537Z,84.74
2018-03-25T01:14:19.566Z,84.74
2018-03-25T01:15:19.576Z,84.26
2018-03-25T01:16:19.602Z,84.45
2018-03-25T01:17:19.626Z,84.74
2018-03-25T01:18:19.637Z,84.92
2018-03-25T01:19:19.655Z,85.02
2018-03-25T01:20:19.669Z,85.30
2018-03-25T01:21:19.689Z,85.11
2018-03-25T01:22:19.712Z,85.87
2018-03-25T01:23:19.728Z,85.49
2018-03-25T01:24:19.749Z,85.40
2018-03-25T01:25:19.767Z,85.21
2018-03-25T01:26:19.784Z,85.30
2018-03-25T01:27:19.810Z,85.30
2018-03-25T01:28:19.821Z,85.68
2018-03-25T01:29:19.841Z,85.83
2018-03-25T01:30:19.858Z,85.74
2018-03-25T01:31:19.880Z,85.93
2018-03-25T01:32:19.895Z,86.11
2018-03-25T01:33:19.912Z,86.68
2018-03-25T01:34:19.937Z,86.59
2018-03-25T01:35:19.951Z,86.68
2018-03-25T01:36:19.971Z,86.68
2018-03-25T01:37:19.990Z,86.21
2018-03-25T01:38:20.007Z,86.49
2018-03-25T01:39:20.030Z,86.78
2018-03-25T01:40:20.044Z,86.59
2018-03-25T01:41:20.062Z,86.40
2018-03-25T01:42:20.084Z,86.87
2018-03-25T01:43:20.099Z,86.68
2018-03-25T01:44:20.122Z,86.59
2018-03-25T01:45:20.136Z,86.87
2018-03-25T01:46:20.160Z,87.35
2018-03-25T01:47:20.180Z,87.54
2018-03-25T01:48:20.189Z,87.45
2018-03-25T01:49:20.213Z,87.45
2018-03-25T01:50:20.230Z,88.01
2018-03-25T01:51:20.246Z,87.73
2018-03-25T01:52:20.272Z,87.73
2018-03-25T01:53:20.284Z,87.73
2018-03-25T01:54:20.306Z,87.54
2018-03-25T01:55:20.331Z,87.63
2018-03-25T01:56:20.336Z,88.10
2018-03-25T01:57:20.361Z,87.92
2018-03-25T01:58:20.377Z,88.29
2018-03-25T01:59:20.397Z,88.58
2018-03-25T02:00:20.420Z,88.48
2018-03-25T02:01:20.435Z,89.06
2018-03-25T02:02:20.451Z,89.15
2018-03-25T02:03:20.474Z,88.68
2018-03-25T02:04:20.496Z,88.48
2018-03-25T02:05:20.508Z,89.06
2018-03-25T02:06:20.523Z,88.87
2018-03-25T02:07:20.552Z,89.25
2018-03-25T02:08:20.565Z,89.43
2018-03-25T02:09:20.579Z,89.34
2018-03-25T02:10:20.602Z,89.77
2018-03-25T02:11:20.622Z,89.72
2018-03-25T02:12:20.637Z,89.81
2018-03-25T02:13:20.662Z,89.53
2018-03-25T02:14:20.672Z,89.72
2018-03-25T02:15:20.693Z,89.81
2018-03-25T02:16:20.721Z,89.62
2018-03-25T02:17:20.734Z,89.72
2018-03-25T02:18:20.751Z,89.91
2018-03-25T02:19:20.773Z,89.62
2018-03-25T02:20:20.782Z,89.58
2018-03-25T02:21:20.806Z,90.53
2018-03-25T02:22:20.826Z,90.43
2018-03-25T02:23:20.844Z,90.53
2018-03-25T02:24:20.863Z,90.34
2018-03-25T02:25:20.877Z,90.24
2018-03-25T02:26:20.899Z,90.34
2018-03-25T02:27:20.914Z,90.53
2018-03-25T02:28:20.935Z,90.53
2018-03-25T02:29:20.953Z,90.62
2018-03-25T02:30:20.970Z,90.53
2018-03-25T02:31:20.989Z,90.53
2018-03-25T02:32:21.005Z,90.43
2018-03-25T02:33:21.022Z,90.91
2018-03-25T02:34:21.048Z,90.81
2018-03-25T02:35:21.064Z,90.81
2018-03-25T02:36:21.078Z,91.09
2018-03-25T02:37:21.102Z,91.19
2018-03-25T02:38:21.114Z,91.38
2018-03-25T02:39:21.145Z,91.47
2018-03-25T02:40:21.152Z,91.57
2018-03-25T02:41:21.173Z,91.47
2018-03-25T02:42:21.188Z,91.47
2018-03-25T02:43:21.210Z,91.09
2018-03-25T02:44:21.225Z,91.00
2018-03-25T02:45:21.249Z,91.00
2018-03-25T02:46:21.266Z,91.28
2018-03-25T02:47:21.281Z,91.76
2018-03-25T02:48:21.305Z,92.04
2018-03-25T02:49:21.323Z,91.85
2018-03-25T02:50:21.337Z,92.04
2018-03-25T02:51:21.352Z,92.14
2018-03-25T02:52:21.374Z,91.85
2018-03-25T02:53:21.387Z,91.95
2018-03-25T02:54:21.414Z,92.23
2018-03-25T02:55:21.424Z,91.85
2018-03-25T02:56:21.449Z,92.33
2018-03-25T02:57:21.466Z,92.52
2018-03-25T02:58:21.498Z,92.04
2018-03-25T02:59:21.504Z,92.14
2018-03-25T03:00:21.514Z,92.14
2018-03-25T03:01:21.544Z,92.04
2018-03-25T03:02:21.554Z,92.14
2018-03-25T03:03:21.569Z,92.04
2018-03-25T03:04:21.596Z,92.23
2018-03-25T03:05:21.605Z,91.95
2018-03-25T03:06:21.633Z,91.47
2018-03-25T03:07:21.649Z,91.66
2018-03-25T03:08:21.663Z,91.85
2018-03-25T03:09:21.684Z,91.76
2018-03-25T03:10:21.702Z,91.57
2018-03-25T03:11:21.717Z,91.66
2018-03-25T03:12:21.732Z,91.95
2018-03-25T03:13:21.754Z,91.57
2018-03-25T03:14:21.787Z,91.28
2018-03-25T03:15:21.792Z,91.09
2018-03-25T03:16:21.809Z,91.19
2018-03-25T03:17:21.831Z,91.28
2018-03-25T03:18:21.841Z,91.00
2018-03-25T03:19:21.864Z,90.91
2018-03-25T03:20:21.883Z,90.91
2018-03-25T03:21:21.898Z,90.81
2018-03-25T03:22:21.914Z,91.19
2018-03-25T03:23:21.941Z,91.28
2018-03-25T03:24:21.951Z,91.47
2018-03-25T03:25:21.969Z,91.28
2018-03-25T03:26:21.999Z,91.09
2018-03-25T03:27:22.006Z,91.00
2018-03-25T03:28:22.026Z,91.47
2018-03-25T03:29:22.045Z,91.09
2018-03-25T03:30:22.117Z,91.38
2018-03-25T03:31:22.083Z,91.09
2018-03-25T03:32:22.103Z,91.09
2018-03-25T03:33:22.120Z,91.09
2018-03-25T03:34:22.136Z,91.28
2018-03-25T03:35:22.158Z,90.91
2018-03-25T03:36:22.176Z,90.91
2018-03-25T03:37:22.194Z,91.47
2018-03-25T03:38:22.216Z,90.81
2018-03-25T03:39:22.226Z,91.00
2018-03-25T03:40:22.251Z,91.00
2018-03-25T03:41:22.269Z,91.28
2018-03-25T03:42:22.278Z,91.09
2018-03-25T03:43:22.301Z,91.09
2018-03-25T03:44:22.363Z,91.76
2018-03-25T03:45:22.337Z,91.38
2018-03-25T03:46:22.361Z,91.47
2018-03-25T03:47:22.371Z,91.19
2018-03-25T03:48:22.397Z,91.09
2018-03-25T03:49:22.417Z,91.28
2018-03-25T03:50:22.426Z,91.28
2018-03-25T03:51:22.452Z,91.47
2018-03-25T03:52:22.462Z,91.57
2018-03-25T03:53:22.483Z,91.57
2018-03-25T03:54:22.499Z,91.09
2018-03-25T03:55:22.520Z,90.81
2018-03-25T03:56:22.541Z,90.81
2018-03-25T03:57:22.554Z,91.28
2018-03-25T03:58:22.581Z,91.09
2018-03-25T03:59:22.590Z,91.09
2018-03-25T04:00:22.612Z,91.38
2018-03-25T04:01:22.630Z,91.85
2018-03-25T04:02:22.650Z,91.76
2018-03-25T04:03:22.666Z,91.95
2018-03-25T04:04:22.687Z,92.04
2018-03-25T04:05:22.705Z,92.61
2018-03-25T04:06:22.720Z,92.42
2018-03-25T04:07:22.742Z,91.85
2018-03-25T04:08:22.756Z,92.14
2018-03-25T04:09:22.778Z,91.76
2018-03-25T04:10:22.794Z,92.04
2018-03-25T04:11:22.815Z,91.85
2018-03-25T04:12:22.835Z,92.04
2018-03-25T04:13:22.848Z,91.85
2018-03-25T04:14:22.865Z,91.47
2018-03-25T04:15:22.885Z,91.28
2018-03-25T04:16:22.905Z,91.38
2018-03-25T04:17:22.924Z,91.09
2018-03-25T04:18:22.949Z,91.28
2018-03-25T04:19:22.957Z,91.47
2018-03-25T04:20:22.981Z,91.76
2018-03-25T04:21:22.993Z,91.66
2018-03-25T04:22:23.015Z,91.38
2018-03-25T04:23:23.037Z,91.28
2018-03-25T04:24:23.045Z,91.95
2018-03-25T04:25:23.067Z,91.66
2018-03-25T04:26:23.087Z,92.04
2018-03-25T04:27:23.118Z,91.66
2018-03-25T04:28:23.134Z,91.95
2018-03-25T04:29:23.142Z,91.66
2018-03-25T04:30:23.170Z,92.04
2018-03-25T04:31:23.180Z,91.95
2018-03-25T04:32:23.202Z,92.04
2018-03-25T04:33:23.212Z,92.33
2018-03-25T04:34:23.235Z,92.71
2018-03-25T04:35:23.250Z,92.52
2018-03-25T04:36:23.271Z,92.52
2018-03-25T04:37:23.294Z,92.52
2018-03-25T04:38:23.308Z,92.04
2018-03-25T04:39:23.324Z,92.23
2018-03-25T04:40:23.339Z,92.14
2018-03-25T04:41:23.356Z,91.95
2018-03-25T04:42:23.378Z,91.95
2018-03-25T04:43:23.394Z,91.76
2018-03-25T04:44:23.417Z,92.14
2018-03-25T04:45:23.431Z,92.04
2018-03-25T04:46:23.452Z,92.14
2018-03-25T04:47:23.508Z,92.52
2018-03-25T04:48:23.487Z,92.52
2018-03-25T04:49:23.506Z,92.52
2018-03-25T04:50:23.527Z,92.33
2018-03-25T04:51:23.541Z,92.23
2018-03-25T04:52:23.565Z,92.61
2018-03-25T04:53:23.582Z,92.14
2018-03-25T04:54:23.594Z,91.66
2018-03-25T04:55:23.619Z,91.66
2018-03-25T04:56:23.628Z,91.85
2018-03-25T04:57:23.649Z,91.38
2018-03-25T04:58:23.665Z,91.28
2018-03-25T04:59:23.686Z,91.57
2018-03-25T05:00:23.706Z,91.38
2018-03-25T05:01:23.720Z,91.57
2018-03-25T05:02:23.747Z,91.47
2018-03-25T05:03:23.763Z,91.19
2018-03-25T05:04:23.782Z,91.47
2018-03-25T05:05:23.795Z,91.47
2018-03-25T05:06:23.816Z,92.04
2018-03-25T05:07:23.832Z,91.76
2018-03-25T05:08:23.853Z,91.85
2018-03-25T05:09:23.871Z,91.95
2018-03-25T05:10:23.886Z,91.76
2018-03-25T05:11:23.909Z,91.57
2018-03-25T05:12:23.923Z,91.38
2018-03-25T05:13:23.939Z,91.57
2018-03-25T05:14:23.967Z,91.57
2018-03-25T05:15:23.976Z,91.95
2018-03-25T05:16:24.002Z,92.23
2018-03-25T05:17:24.021Z,91.76
2018-03-25T05:18:24.037Z,91.85
2018-03-25T05:19:24.056Z,91.95
2018-03-25T05:20:24.072Z,91.57
2018-03-25T05:21:24.090Z,91.57
2018-03-25T05:22:24.106Z,91.71
2018-03-25T05:23:24.122Z,91.47
2018-03-25T05:24:24.148Z,91.71
2018-03-25T05:25:24.161Z,91.71
2018-03-25T05:26:24.182Z,91.66
2018-03-25T05:27:24.204Z,91.09
2018-03-25T05:28:24.218Z,90.76
2018-03-25T05:29:24.241Z,91.14
2018-03-25T05:30:24.256Z,90.86
2018-03-25T05:31:24.271Z,90.86
2018-03-25T05:32:24.292Z,91.24
2018-03-25T05:33:24.311Z,90.86
2018-03-25T05:34:24.326Z,91.05
2018-03-25T05:35:24.348Z,90.86
2018-03-25T05:36:24.367Z,90.86
2018-03-25T05:37:24.386Z,90.86
2018-03-25T05:38:24.398Z,90.76
2018-03-25T05:39:24.419Z,90.67
2018-03-25T05:40:24.440Z,90.19
2018-03-25T05:41:24.453Z,90.19
2018-03-25T05:42:24.478Z,90.48
2018-03-25T05:43:24.495Z,90.76
2018-03-25T05:44:24.511Z,90.67
2018-03-25T05:45:24.526Z,90.76
2018-03-25T05:46:24.553Z,90.29
2018-03-25T05:47:24.563Z,90.38
2018-03-25T05:48:24.583Z,90.57
2018-03-25T05:49:24.602Z,90.48
2018-03-25T05:50:24.619Z,90.76
2018-03-25T05:51:24.639Z,90.19
2018-03-25T05:52:24.661Z,91.14
2018-03-25T05:53:24.678Z,91.33
2018-03-25T05:54:24.696Z,91.24
2018-03-25T05:55:24.717Z,91.14
2018-03-25T05:56:24.730Z,91.33
2018-03-25T05:57:24.752Z,91.14
2018-03-25T05:58:24.771Z,91.33
2018-03-25T05:59:24.788Z,91.24
2018-03-25T06:00:24.808Z,90.86
2018-03-25T06:01:24.829Z,90.95
2018-03-25T06:02:24.840Z,91.14
2018-03-25T06:03:24.868Z,90.76
2018-03-25T06:04:24.882Z,90.86
2018-03-25T06:05:24.902Z,90.67
2018-03-25T06:06:24.922Z,90.29
2018-03-25T06:07:24.941Z,90.00
2018-03-25T06:08:24.955Z,89.62
2018-03-25T06:09:24.972Z,89.62
2018-03-25T06:10:24.993Z,89.91
2018-03-25T06:11:25.018Z,89.81
2018-03-25T06:12:25.030Z,89.81
2018-03-25T06:13:25.056Z,89.81
2018-03-25T06:14:25.142Z,90.57
2018-03-25T06:15:25.087Z,90.48
2018-03-25T06:16:25.103Z,90.57
2018-03-25T06:17:25.123Z,90.67
2018-03-25T06:18:25.140Z,90.57
2018-03-25T06:19:25.157Z,91.14
2018-03-25T06:20:25.183Z,90.67
2018-03-25T06:21:25.201Z,90.86
2018-03-25T06:22:25.217Z,90.86
2018-03-25T06:23:25.242Z,90.95
2018-03-25T06:24:25.253Z,90.38
2018-03-25T06:25:25.272Z,90.67
2018-03-25T06:26:25.288Z,90.86
2018-03-25T06:27:25.305Z,90.86
2018-03-25T06:28:25.331Z,91.14
2018-03-25T06:29:25.345Z,91.05
2018-03-25T06:30:25.366Z,90.86
2018-03-25T06:31:25.387Z,91.05
2018-03-25T06:32:25.398Z,91.33
2018-03-25T06:33:25.419Z,90.76
2018-03-25T06:34:25.473Z,90.29
2018-03-25T06:35:25.463Z,90.76
2018-03-25T06:36:25.477Z,90.67
2018-03-25T06:37:25.491Z,89.81
2018-03-25T06:38:25.511Z,89.81
2018-03-25T06:39:25.536Z,89.34
2018-03-25T06:40:25.549Z,89.06
2018-03-25T06:41:25.568Z,89.15
2018-03-25T06:42:25.590Z,88.87
2018-03-25T06:43:25.610Z,89.25
2018-03-25T06:44:25.647Z,89.34
2018-03-25T06:45:25.646Z,89.15
2018-03-25T06:46:25.667Z,89.15
2018-03-25T06:47:25.677Z,88.68
2018-03-25T06:48:25.705Z,89.06
2018-03-25T06:49:25.720Z,88.87
2018-03-25T06:50:25.743Z,88.58
2018-03-25T06:51:25.753Z,88.58
2018-03-25T06:52:25.773Z,88.39
2018-03-25T06:53:25.795Z,88.48
2018-03-25T06:54:25.810Z,87.92
2018-03-25T06:55:25.832Z,87.92
2018-03-25T06:56:25.852Z,87.25
2018-03-25T06:57:25.871Z,87.35
2018-03-25T06:58:25.887Z,87.77
2018-03-25T06:59:25.904Z,87.68
2018-03-25T07:00:25.930Z,87.68
2018-03-25T07:01:25.944Z,87.39
2018-03-25T07:02:25.969Z,87.58
2018-03-25T07:03:25.987Z,87.20
2018-03-25T07:04:25.999Z,87.11
2018-03-25T07:05:26.025Z,87.30
2018-03-25T07:06:26.037Z,86.91
2018-03-25T07:07:26.063Z,86.72
2018-03-25T07:08:26.079Z,86.44
2018-03-25T07:09:26.102Z,86.44
2018-03-25T07:10:26.120Z,86.35
2018-03-25T07:11:26.137Z,86.54
2018-03-25T07:12:26.151Z,86.54
2018-03-25T07:13:26.177Z,87.39
2018-03-25T07:14:26.218Z,87.01
2018-03-25T07:15:26.216Z,86.44
2018-03-25T07:16:26.225Z,86.44
2018-03-25T07:17:26.256Z,86.63
2018-03-25T07:18:26.272Z,86.72
2018-03-25T07:19:26.285Z,86.35
2018-03-25T07:20:26.310Z,86.16
2018-03-25T07:21:26.356Z,86.25
2018-03-25T07:22:26.346Z,86.16
2018-03-25T07:23:26.360Z,85.68
2018-03-25T07:24:26.390Z,86.54
2018-03-25T07:25:26.406Z,86.82
2018-03-25T07:26:26.417Z,87.01
2018-03-25T07:27:26.445Z,86.72
2018-03-25T07:28:26.460Z,86.35
2018-03-25T07:29:26.474Z,86.63
2018-03-25T07:30:26.502Z,86.07
2018-03-25T07:31:26.514Z,85.87
2018-03-25T07:32:26.541Z,85.59
2018-03-25T07:33:26.560Z,85.25
2018-03-25T07:34:26.571Z,84.97
2018-03-25T07:35:26.599Z,85.16
2018-03-25T07:36:26.609Z,85.35
2018-03-25T07:37:26.632Z,84.87
2018-03-25T07:38:26.658Z,84.68
2018-03-25T07:39:26.675Z,84.59
2018-03-25T07:40:26.685Z,84.49
2018-03-25T07:41:26.728Z,84.21
2018-03-25T07:42:26.745Z,84.40
2018-03-25T07:43:26.746Z,87.82
2018-03-25T07:44:26.765Z,88.34
2018-03-25T07:45:26.786Z,84.53
2018-03-25T07:46:26.813Z,82.45
2018-03-25T07:47:26.842Z,82.16
2018-03-25T07:48:26.842Z,81.21
2018-03-25T07:49:26.867Z,81.49
2018-03-25T07:50:26.959Z,81.97
2018-03-25T07:51:26.904Z,81.97
2018-03-25T07:52:26.939Z,81.93
2018-03-25T07:53:26.939Z,82.78
2018-03-25T07:54:26.968Z,82.59
2018-03-25T07:55:26.986Z,82.59
2018-03-25T07:56:27.007Z,83.07
2018-03-25T07:57:27.027Z,82.97
2018-03-25T07:58:27.044Z,82.64
2018-03-25T07:59:27.068Z,82.45
2018-03-25T08:00:27.128Z,82.26
2018-03-25T08:01:27.104Z,83.11
2018-03-25T08:02:27.121Z,83.49
2018-03-25T08:03:27.144Z,82.26
2018-03-25T08:04:27.161Z,81.87
2018-03-25T08:05:27.209Z,81.49
2018-03-25T08:06:27.202Z,81.59
2018-03-25T08:07:27.219Z,81.40
2018-03-25T08:08:27.240Z,82.26
2018-03-25T08:09:27.264Z,81.21
2018-03-25T08:10:27.276Z,81.12
2018-03-25T08:11:27.299Z,82.26
2018-03-25T08:12:27.315Z,81.78
2018-03-25T08:13:27.336Z,81.02
2018-03-25T08:14:27.358Z,81.21
2018-03-25T08:15:27.376Z,81.59
2018-03-25T08:16:27.404Z,80.83
2018-03-25T08:17:27.416Z,81.40
2018-03-25T08:18:27.463Z,81.30
2018-03-25T08:19:27.464Z,81.78
2018-03-25T08:20:27.475Z,81.30
2018-03-25T08:21:27.506Z,81.49
2018-03-25T08:22:27.519Z,80.55
2018-03-25T08:23:27.536Z,79.97
2018-03-25T08:24:27.563Z,80.35
2018-03-25T08:25:27.576Z,79.69
2018-03-25T08:26:27.604Z,79.60
2018-03-25T08:27:27.616Z,79.63
2018-03-25T08:28:27.644Z,79.88
2018-03-25T08:29:27.660Z,79.54
2018-03-25T08:30:27.682Z,79.63
2018-03-25T08:31:27.708Z,79.25
2018-03-25T08:32:27.716Z,79.16
2018-03-25T08:33:27.743Z,78.88
2018-03-25T08:34:27.760Z,78.97
2018-03-25T08:35:27.778Z,78.88
2018-03-25T08:36:27.806Z,77.83
2018-03-25T08:37:27.821Z,77.55
2018-03-25T08:38:27.844Z,78.25
2018-03-25T08:39:27.866Z,77.68
2018-03-25T08:40:27.891Z,77.39
2018-03-25T08:41:27.902Z,76.88
2018-03-25T08:42:27.924Z,76.78
2018-03-25T08:43:27.948Z,77.64
2018-03-25T08:44:27.959Z,77.92
2018-03-25T08:45:27.979Z,78.59
2018-03-25T08:46:28.008Z,79.06
2018-03-25T08:47:28.021Z,79.54
2018-03-25T08:48:28.049Z,79.16
2018-03-25T08:49:28.069Z,78.63
2018-03-25T08:50:28.081Z,78.44
2018-03-25T08:51:28.104Z,77.97
2018-03-25T08:52:28.128Z,77.97
2018-03-25T08:53:28.143Z,77.20
2018-03-25T08:54:28.172Z,76.54
2018-03-25T08:55:28.190Z,76.82
2018-03-25T08:56:28.206Z,76.16
2018-03-25T08:57:28.230Z,75.78
2018-03-25T08:58:28.248Z,75.96
2018-03-25T08:59:28.272Z,75.68
2018-03-25T09:00:28.293Z,75.21
2018-03-25T09:01:28.313Z,75.34
2018-03-25T09:02:28.333Z,74.96
2018-03-25T09:03:28.356Z,74.58
2018-03-25T09:04:28.368Z,74.58
2018-03-25T09:05:28.390Z,75.05
2018-03-25T09:06:28.422Z,75.15
2018-03-25T09:07:28.436Z,74.29
2018-03-25T09:08:28.455Z,74.96
2018-03-25T09:09:28.480Z,74.39
2018-03-25T09:10:28.492Z,75.15
2018-03-25T09:11:28.516Z,75.72
2018-03-25T09:12:28.539Z,74.77
2018-03-25T09:13:28.557Z,75.15
2018-03-25T09:14:28.581Z,74.77
2018-03-25T09:15:28.599Z,74.01
2018-03-25T09:16:28.616Z,73.44
2018-03-25T09:17:28.670Z,73.72
2018-03-25T09:18:28.664Z,72.20
2018-03-25T09:19:28.691Z,71.34
2018-03-25T09:20:28.709Z,71.57
2018-03-25T09:21:28.736Z,71.09
2018-03-25T09:22:28.746Z,70.77
2018-03-25T09:23:28.769Z,70.68
2018-03-25T09:24:28.789Z,71.15
2018-03-25T09:25:28.806Z,71.34
2018-03-25T09:26:28.835Z,71.38
2018-03-25T09:27:28.854Z,71.38
2018-03-25T09:28:28.872Z,70.43
2018-03-25T09:29:28.895Z,70.24
2018-03-25T09:30:28.914Z,70.52
2018-03-25T09:31:28.933Z,70.05
2018-03-25T09:32:28.962Z,69.32
2018-03-25T09:33:28.977Z,68.94
2018-03-25T09:34:29.002Z,67.89
2018-03-25T09:35:29.030Z,68.46
2018-03-25T09:36:29.040Z,68.08
2018-03-25T09:37:29.066Z,68.90
2018-03-25T09:38:29.085Z,69.00
2018-03-25T09:39:29.108Z,68.90
2018-03-25T09:40:29.126Z,69.29
2018-03-25T09:41:29.152Z,69.13
2018-03-25T09:42:29.173Z,69.42
2018-03-25T09:43:29.192Z,69.04
2018-03-25T09:44:29.216Z,69.38
2018-03-25T09:45:29.251Z,69.60
2018-03-25T09:46:29.257Z,68.94
2018-03-25T09:47:29.284Z,69.13
2018-03-25T09:48:29.297Z,69.13
2018-03-25T09:49:29.319Z,68.56
2018-03-25T09:50:29.348Z,68.37
2018-03-25T09:51:29.363Z,68.84
2018-03-25T09:52:29.392Z,68.37
2018-03-25T09:53:29.410Z,68.27
2018-03-25T09:54:29.429Z,67.70
2018-03-25T09:55:29.462Z,67.80
2018-03-25T09:56:29.473Z,68.27
2018-03-25T09:57:29.495Z,68.18
2018-03-25T09:58:29.523Z,67.61
2018-03-25T09:59:29.539Z,67.64
2018-03-25T10:00:29.562Z,67.55
2018-03-25T10:01:29.588Z,67.26
2018-03-25T10:02:29.602Z,67.07
2018-03-25T10:03:29.626Z,67.26
2018-03-25T10:04:29.648Z,67.26
2018-03-25T10:05:29.678Z,67.26
2018-03-25T10:06:29.701Z,67.16
2018-03-25T10:07:29.711Z,66.40
2018-03-25T10:08:29.740Z,66.44
2018-03-25T10:09:29.757Z,66.72
2018-03-25T10:10:29.783Z,66.82
2018-03-25T10:11:29.856Z,66.50
2018-03-25T10:12:29.826Z,66.24
2018-03-25T10:13:29.847Z,66.05
2018-03-25T10:14:29.872Z,65.48
2018-03-25T10:15:29.893Z,65.10
2018-03-25T10:16:29.912Z,64.81
2018-03-25T10:17:29.931Z,65.00
2018-03-25T10:18:29.962Z,64.09
2018-03-25T10:19:29.982Z,62.75
2018-03-25T10:20:30.005Z,61.63
2018-03-25T10:21:30.023Z,60.24
2018-03-25T10:22:30.042Z,59.95
2018-03-25T10:23:30.073Z,59.95
2018-03-25T10:24:30.090Z,59.56
2018-03-25T10:25:30.110Z,58.90
2018-03-25T10:26:30.141Z,58.26
2018-03-25T10:27:30.165Z,57.81
2018-03-25T10:28:30.182Z,57.40
2018-03-25T10:29:30.212Z,57.33
2018-03-25T10:30:30.226Z,56.38
2018-03-25T10:31:30.252Z,55.52
2018-03-25T10:32:30.277Z,55.80
2018-03-25T10:33:30.311Z,55.04
2018-03-25T10:34:30.324Z,54.78
2018-03-25T10:35:30.348Z,54.49
2018-03-25T10:36:30.373Z,54.68
2018-03-25T10:37:30.392Z,54.39
2018-03-25T10:38:30.425Z,54.11
2018-03-25T10:39:30.446Z,53.85
2018-03-25T10:40:30.472Z,53.02
2018-03-25T10:41:30.497Z,52.34
2018-03-25T10:42:30.514Z,52.06
2018-03-25T10:43:30.574Z,52.42
2018-03-25T10:44:30.569Z,52.13
2018-03-25T10:45:30.587Z,52.03
2018-03-25T10:46:30.621Z,52.22
2018-03-25T10:47:30.646Z,51.46
2018-03-25T10:48:30.665Z,51.56
2018-03-25T10:49:30.730Z,51.75
2018-03-25T10:50:30.715Z,51.84
2018-03-25T10:51:30.743Z,51.65
2018-03-25T10:52:30.769Z,51.75
2018-03-25T10:53:30.798Z,52.48
2018-03-25T10:54:30.819Z,52.51
2018-03-25T10:55:30.843Z,52.32
2018-03-25T10:56:30.865Z,51.46
2018-03-25T10:57:30.918Z,51.29
2018-03-25T10:58:30.925Z,50.62
2018-03-25T10:59:30.942Z,50.79
2018-03-25T11:00:30.976Z,51.56
2018-03-25T11:01:31.006Z,51.68
2018-03-25T11:02:31.019Z,51.87
2018-03-25T11:03:31.054Z,51.17
2018-03-25T11:04:31.071Z,50.81
2018-03-25T11:05:31.104Z,51.17
2018-03-25T11:06:31.123Z,51.36
2018-03-25T11:07:31.150Z,51.46
2018-03-25T11:08:31.175Z,51.17
2018-03-25T11:09:31.207Z,50.91
2018-03-25T11:10:31.239Z,50.36
2018-03-25T11:11:31.254Z,49.11
2018-03-25T11:12:31.287Z,48.57
2018-03-25T11:13:31.330Z,47.82
2018-03-25T11:14:31.333Z,45.81
2018-03-25T11:15:31.365Z,45.52
2018-03-25T11:16:31.391Z,45.07
2018-03-25T11:17:31.411Z,45.14
2018-03-25T11:18:31.446Z,46.17
2018-03-25T11:19:31.471Z,45.50
2018-03-25T11:20:31.495Z,44.95
2018-03-25T11:21:31.518Z,44.49
2018-03-25T11:22:31.556Z,43.65
2018-03-25T11:23:31.579Z,42.52
2018-03-25T11:24:31.609Z,41.58
2018-03-25T11:25:31.630Z,40.64
2018-03-25T11:26:31.655Z,39.78
2018-03-25T11:27:31.691Z,39.18
2018-03-25T11:28:31.711Z,39.47
2018-03-25T11:29:31.743Z,39.64
2018-03-25T11:30:31.773Z,40.02
2018-03-25T11:31:31.796Z,40.22
2018-03-25T11:32:31.832Z,40.22
2018-03-25T11:33:31.856Z,39.76
2018-03-25T11:34:31.887Z,38.70
2018-03-25T11:35:31.918Z,38.72
2018-03-25T11:36:31.938Z,38.07
2018-03-25T11:37:31.971Z,38.28
2018-03-25T11:38:32.019Z,36.72
2018-03-25T11:39:32.030Z,36.24
2018-03-25T11:40:32.060Z,35.57
2018-03-25T11:41:32.085Z,35.77
2018-03-25T11:42:32.123Z,35.95
2018-03-25T11:43:32.152Z,36.33
2018-03-25T11:44:32.184Z,36.91
2018-03-25T11:45:32.214Z,37.08
2018-03-25T11:46:32.237Z,37.37
2018-03-25T11:47:32.287Z,37.02
2018-03-25T11:48:32.343Z,36.45
2018-03-25T11:49:32.327Z,35.50
2018-03-25T11:50:32.367Z,34.46
2018-03-25T11:51:32.389Z,33.98
2018-03-25T11:52:32.424Z,33.77
2018-03-25T11:53:32.456Z,32.98
2018-03-25T11:54:32.487Z,33.45
2018-03-25T11:55:32.519Z,33.64
2018-03-25T11:56:32.552Z,35.72
2018-03-25T11:57:32.581Z,35.74
2018-03-25T11:58:32.611Z,35.28
2018-03-25T11:59:32.650Z,33.75
2018-03-25T12:00:32.669Z,32.59
2018-03-25T12:01:32.706Z,32.98
2018-03-25T12:02:32.735Z,31.93
2018-03-25T12:03:32.764Z,32.41
2018-03-25T12:04:32.803Z,33.16
2018-03-25T12:05:32.829Z,33.45
2018-03-25T12:06:32.864Z,33.36
2018-03-25T12:07:32.898Z,33.45
2018-03-25T12:08:32.920Z,32.03
2018-03-25T12:09:32.960Z,31.35
2018-03-25T12:10:32.988Z,32.41
2018-03-25T12:11:33.018Z,32.21
2018-03-25T12:12:33.054Z,32.41
2018-03-25T12:13:33.079Z,32.59
2018-03-25T12:14:33.120Z,32.68
2018-03-25T12:15:33.149Z,33.37
2018-03-25T12:16:33.257Z,32.23
2018-03-25T12:17:33.215Z,31.77
2018-03-25T12:18:33.240Z,31.00
2018-03-25T12:19:33.285Z,31.09
2018-03-25T12:20:33.299Z,31.37
2018-03-25T12:21:33.333Z,30.98
2018-03-25T12:22:33.372Z,32.39
2018-03-25T12:23:33.397Z,34.38
2018-03-25T12:24:33.436Z,36.57
2018-03-25T12:25:33.464Z,36.93
2018-03-25T12:26:33.494Z,37.97
2018-03-25T12:27:33.528Z,38.45
2018-03-25T12:28:33.557Z,38.91
2018-03-25T12:29:33.588Z,39.37
2018-03-25T12:30:33.622Z,39.47
2018-03-25T12:31:33.648Z,39.94
2018-03-25T12:32:33.682Z,39.58
2018-03-25T12:33:33.712Z,37.32
2018-03-25T12:34:33.741Z,37.30
2018-03-25T12:35:33.772Z,37.97
2018-03-25T12:36:33.807Z,38.24
2018-03-25T12:37:33.831Z,38.98
2018-03-25T12:38:33.863Z,40.14
2018-03-25T12:39:33.895Z,40.69
2018-03-25T12:40:33.916Z,40.78
2018-03-25T12:41:33.948Z,41.05
2018-03-25T12:42:33.976Z,41.53
2018-03-25T12:43:34.013Z,42.20
2018-03-25T12:44:34.033Z,43.33
2018-03-25T12:45:34.067Z,43.62
2018-03-25T12:46:34.092Z,44.55
2018-03-25T12:47:34.118Z,44.84
2018-03-25T12:48:34.149Z,45.51
2018-03-25T12:49:34.178Z,45.70
2018-03-25T12:50:34.206Z,46.37
2018-03-25T12:51:34.243Z,46.15
2018-03-25T12:52:34.256Z,46.06